MET: Información y Pronóstico Aeronáutico

///////////////////////////////////////////////////////////////////////////////////////////////////////////////////////////////////////////////////////////////////////////////////////////////////////////////////////////////////////////////

Member for

2 años 9 meses
Enviado por meteorologia el Jue, 23/11/2017 - 11:39
19/4

19 DE ABRIL 2021

INFORMACION METEOROLOGICA AERONAUTICA (METAR) 18:00 UTC

Aeropuerto AEROPARQUE J. NEWBERY

19 - 18:00  METAR SABE 191800Z 07007KT CAVOK 23/16 Q1019 NOSIG =

Aeropuerto BAHIA BLANCA

19 - 18:00  METAR SAZB 191800Z 36018KT 9999 FEW040 28/16 Q1014 =

Aeropuerto BARILOCHE

19 - 18:00  METAR SAZS 191800Z 31009KT 7000 VCSH FEW009 SCT017 BKN035 14/12 Q1008 =

Aeropuerto CATAMARCA

19 - 18:00  METAR SANC 191800Z 36018KT 9999 FEW050 31/16 Q1010 =

Aeropuerto CHAPELCO

19 - 18:00  METAR SAZY 191800Z 25010KT 9999 -RA FEW003 BKN035 15/12 Q1008 =

Aeropuerto COMODORO RIVADAVIA

19 - 18:00  METAR SAVC 191800Z 25015G25KT 210V330 9999 FEW040 BKN200 20/10 Q1002 =

Aeropuerto CORDOBA

19 - 18:00  METAR SACO 191800Z 03013KT 9999 BKN035 27/17 Q1015 NOSIG =

Aeropuerto CORRIENTES

19 - 18:00  METAR SARC 191800Z 05008KT 9999 FEW020 29/16 Q1014 =

Aeropuerto EL CALAFATE

19 - 18:00  METAR SAWC 191800Z 27025KT 9999 FEW030 BKN080 13/M04 Q0996 =

Aeropuerto EL PALOMAR

19 - 18:00  METAR SADP 191800Z 04008KT 010V070 CAVOK 24/13 Q1019 =

Aeropuerto ESQUEL

19 - 18:00  METAR SAVE 191800Z 27010KT 9999 -RA BKN038 SCT050 14/06 Q1007 =

Aeropuerto EZEIZA

19 - 18:00  METAR SAEZ 191800Z 05011KT CAVOK 25/13 Q1019 NOSIG =

Aeropuerto FORMOSA

19 - 18:00  METAR SARF 191800Z 09006KT CAVOK 30/21 Q1013 =

Aeropuerto IGUAZU/CATARATAS

19 - 17:00  METAR SARI 191700Z 36003KT 9999 FEW025 28/18 Q1016 =

Aeropuerto JUJUY

19 - 18:00  METAR SASJ 191800Z 05006KT 9999 SCT025 25/19 Q1016 =

Aeropuerto LA RIOJA

19 - 18:00  METAR SANL 191800Z 32004KT 9999 SCT045 29/19 Q1010 =

Aeropuerto MALARGUE

19 - 18:00  METAR SAMM 191800Z 09005KT CAVOK 22/09 Q1014 =

Aeropuerto MAR DEL PLATA

19 - 18:00  METAR SAZM 191800Z 01012KT CAVOK 25/14 Q1020 =

Aeropuerto MENDOZA

19 - 18:00  METAR SAME 191800Z 36006KT 9999 SCT040 27/16 Q1010 =

Aeropuerto MORON

19 - 18:00  METAR SADM 191800Z 07007KT CAVOK 24/14 Q1019 =

Aeropuerto NEUQUEN

19 - 18:00  METAR SAZN 191800Z 09005KT CAVOK 28/14 Q1007 =

Aeropuerto PARANA

19 - 18:00  METAR SAAP 191800Z 36010KT 9999 FEW020 28/18 Q1016 =

Aeropuerto POSADAS

19 - 18:00  METAR SARP 191800Z 11005KT 9999 FEW025 30/18 Q1015 =

Aeropuerto PUERTO MADRYN

19 - 18:00  METAR SAVY 191800Z 36020KT CAVOK 26/17 Q1004 =

Aeropuerto RECONQUISTA

19 - 18:00  METAR SATR 191800Z 09008KT 9999 FEW025 29/19 Q1014 =

Aeropuerto RESISTENCIA

19 - 18:00  METAR SARE 191800Z 08006KT 040V120 CAVOK 30/16 Q1014 =

Aeropuerto RIO CUARTO

19 - 18:00  METAR SAOC 191800Z 02025G35KT 9999 SCT035 26/16 Q1013 =

Aeropuerto RIO GALLEGOS

19 - 18:00  METAR SAWG 191800Z 27007KT 9999 FEW030 SCT100 11/05 Q//// =

Aeropuerto RIO GRANDE

19 - 18:00  METAR SAWE 191800Z 25013KT 9999 FEW009 SCT015 10/08 Q0990 =

Aeropuerto ROSARIO

19 - 18:00  METAR SAAR 191800Z 05011KT 9999 SCT043 26/17 Q1016 =

Aeropuerto SALTA

19 - 18:00  METAR SASA 191800Z 05010KT 9999 SCT020 SCT025 23/16 Q1017 =

Aeropuerto SAN FERNANDO

19 - 18:00  METAR SADF 191800Z 05011KT 010V070 CAVOK 25/14 Q1019 =

Aeropuerto SAN JUAN

19 - 18:00  METAR SANU 191800Z 36002KT CAVOK 31/14 Q1009 =

Aeropuerto SAN LUIS

19 - 17:00  METAR SAOU 191700Z 34012KT 9999 FEW035 SCT200 26/15 Q1013 =

Aeropuerto SAN RAFAEL

19 - 18:00  METAR SAMR 191800Z 02013KT 9999 SCT035 SCT100 27/18 Q1011 =

Aeropuerto SANTA ROSA

19 - 18:00  METAR SAZR 191800Z 36021KT 9999 FEW035 27/18 Q1012 =

Aeropuerto SANTIAGO DEL ESTERO

19 - 18:00  METAR SANE 191800Z 05009KT 9999 BKN035 31/18 Q1011 =

Aeropuerto SAUCE VIEJO

19 - 18:00  METAR SAAV 191800Z 07009KT 9999 FEW040 27/16 Q1015 =

Aeropuerto TANDIL

19 - 18:00  METAR SAZT 191800Z 36015KT 9999 SCT025 24/15 Q1019 =

Aeropuerto TERMAS DE RIO HONDO

19 - 18:00  METAR SANR 191800Z 05012KT 9999 BKN030 30/19 Q1011 =

Aeropuerto TRELEW

19 - 18:00  METAR SAVT 191800Z 36020KT CAVOK 29/16 Q1003 =

Aeropuerto TUCUMAN

19 - 18:00  METAR SANT 191800Z 25007KT 200V270 9999 SCT035 28/21 Q1012 =

Aeropuerto USHUAIA

19 - 18:00  METAR SAWH 191800Z 23006KT 9999 +DZ BKN015 BKN045 07/06 Q0991 =

Aeropuerto VIEDMA

19 - 18:00  METAR SAVV 191800Z 34016G29KT 300V050 5000 BLDU NSC 31/18 Q1008 =

Aeropuerto VILLA REYNOLDS

19 - 18:00  METAR SAOR 191800Z 36010KT 9999 SCT040 SCT200 29/17 Q1012 =

 PRONOSTICO DE AERODROMO (TAF) 17:00 UTC

Estación AEROPARQUE J. NEWBERY

19 - 17:00  TAF SABE 191700Z 1918/2018 04010KT CAVOK TX24/1918Z TN17/2010Z BECMG 1917/1919 09015KT BECMG 2003/2006 05015KT =

Estación BAHIA BLANCA

19 - 17:00  TAF SAZB 191700Z 1918/2018 36020G32KT CAVOK TX28/1919Z TN15/2009Z BECMG 1922/2001 02015G25KT BECMG 2012/2014 36020G35KT =

Estación BARILOCHE

19 - 17:00  TAF SAZS 191700Z 1918/2018 30015KT 6000 RA BKN020 OVC050 TX17/2018Z TN08/2010Z BECMG 1923/2001 VRB05KT 9000 -RA BECMG 2006/2008 14005KT 9999 FEW020 BKN100 =

Estación CATAMARCA

19 - 17:00  TAF SANC 191700Z 1918/2018 02020G30KT CAVOK TX32/2018Z TN20/2010Z BECMG 2000/2002 02015KT BECMG 2014/2016 02030G40KT =

Estación CHAPELCO

19 - 17:00  TAF SAZY 191700Z 1918/2018 25013KT 9000 -RA BKN035 TX18/2018Z TN05/2009Z BECMG 1919/1921 7000 RA BKN025 TEMPO 1921/2001 5000 SHRA BKN010 BECMG 2002/2004 VRB03KT 3000 BR SCT008 TEMPO 2005/2012 0800 FG SCT005 BECMG 2012/2015 CAVOK =

Estación COMODORO RIVADAVIA

19 - 17:00  TAF SAVC 191700Z 1918/2018 34015G25KT CAVOK TX28/1918Z TN11/2010Z BECMG 1919/1921 29015G30KT 9999 FEW030 BKN070 BECMG 2001/2003 SCT030 OVC060 BECMG 2010/2012 VRB03KT =

Estación CORDOBA

19 - 17:00  TAF SACO 191700Z 1918/2018 02015G25KT 9999 BKN025 TX29/2018Z TN18/2010Z BECMG 1921/1923 36010KT CAVOK PROB40 TEMPO 2009/2012 02005KT 5000 BR NSC BECMG 2013/2015 05015KT =

Estación CORRIENTES

19 - 17:00  TAF SARC 191700Z 1918/2018 14010KT CAVOK TX30/1919Z TN17/2010Z =

Estación EL CALAFATE

19 - 17:00  TAF SAWC 191700Z 1918/2018 27015G25KT SCT030 SCT070 TX14/1918Z TN03/2010Z =

Estación EL PALOMAR

19 - 17:00  TAF SADP 191700Z 1918/2018 05015KT CAVOK TX25/1918Z TN16/2010Z BECMG 2009/2011 9999 SCT015 BECMG 2012/2014 06015G25KT 9999 SCT025 =

Estación ESQUEL

19 - 17:00  TAF SAVE 191700Z 1918/2018 27015G25KT 9999 -DZRA BKN030 SCT050 TX17/1915Z TN04/2010Z PROB40 TEMPO 1918/1924 27015KT 5000 RA BKN020 OVC050 =

Estación EZEIZA

19 - 17:00  TAF SAEZ 191700Z 1918/2018 05015KT CAVOK TX25/1918Z TN16/2010Z BECMG 2009/2011 9999 SCT015 BECMG 2012/2014 06015G25KT 9999 SCT025 =

Estación FORMOSA

19 - 17:00  TAF SARF 191700Z 1918/2018 16005KT CAVOK TX30/1919Z TN18/2010Z =

Estación IGUAZU/CATARATAS

19 - 17:00  TAF SARI 191700Z 1918/2018 36005KT 9999 SCT025 TX29/1919Z TN18/2010Z =

Estación JUJUY

19 - 17:00  TAF SASJ 191700Z 1918/2018 20010KT 9999 SCT020 TX27/2018Z TN19/2010Z BECMG 1919/1921 05010KT CAVOK TEMPO 20005KT 5000 BR SCT010 BECMG 2013/2015 05010KT 9999 SCT030 =

Estación LA RIOJA

19 - 17:00  TAF SANL 191700Z 1918/2018 23005KT CAVOK TX32/2018Z TN21/2010Z BECMG 2000/2003 23010KT =

Estación MAR DEL PLATA

19 - 17:00  TAF SAZM 191700Z 1918/2018 02015KT CAVOK TX24/1918Z TN15/2009Z TEMPO 2006/2011 6000 NSC BECMG 2012/2014 9999 SCT030 =

Estación MENDOZA

19 - 17:00  TAF SAME 191700Z 1918/2018 05005KT 9999 SCT040 TX29/1920Z TN19/2011Z BECMG 2002/2004 20005KT CAVOK BECMG 2014/2016 05010KT 9999 FEW040 =

Estación NEUQUEN

19 - 17:00  TAF SAZN 191700Z 1918/2018 VRB05KT CAVOK TX28/1919Z TN16/2010Z TEMPO 1921/2003 7000 -TSRA FEW040CB BKN050 =

Estación PARANA

19 - 17:00  TAF SAAP 191700Z 1918/2018 36010KT 9999 SCT020 TX29/2018Z TN16/2009Z BECMG 1921/1923 09008KT CAVOK BECMG 2012/2014 04015KT =

Estación POSADAS

19 - 17:00  TAF SARP 191700Z 1918/2018 05005KT 9999 SCT025 TX30/1919Z TN17/2010Z =

Estación RESISTENCIA

19 - 17:00  TAF SARE 191700Z 1918/2018 08005KT CAVOK TX31/1919Z TN17/2010Z =

Estación RIO CUARTO

19 - 17:00  TAF SAOC 191700Z 1918/2018 02030G40KT CAVOK TX29/2018Z TN17/2010Z BECMG 2002/2004 02010KT 9999 SCT030 PROB40 TEMPO 2009/2012 5000 BR NSC BECMG 2014/2016 02020G30KT CAVOK =

Estación RIO GALLEGOS

19 - 17:00  TAF SAWG 191700Z 1918/2018 23015G25KT 9999 SCT030 BKN060 TX13/1918Z TN05/2011Z BECMG 1921/1923 30008KT CAVOK BECMG 2002/2004 36012KT =

Estación RIO GRANDE

19 - 17:00  TAF SAWE 191700Z 1918/2018 25015G25KT 9999 -SHRA SCT020 BKN080 TX11/1919Z TN04/2010Z PROB30 TEMPO 1918/1920 11006KT 0900 FG BKN010 BECMG 1923/2001 27012KT CAVOK =

Estación ROSARIO

19 - 17:00  TAF SAAR 191700Z 1918/2018 06010KT 9999 SCT035 TX28/1918Z TN16/2010Z =

Estación SALTA

19 - 17:00  TAF SASA 191700Z 1918/2018 05010KT 9999 BKN025 TX26/2018Z TN16/2010Z BECMG 1923/2002 20005KT 9999 BKN020 TEMPO 2009/2012 23005KT 2000 BR BKN012 BECMG 2014/2016 05010KT 9999 SCT025 =

Estación SAN FERNANDO

19 - 17:00  TAF SADF 191700Z 1918/2018 05015KT CAVOK TX25/2018Z TN17/2010Z BECMG 2003/2005 02015G25KT BECMG 2009/2011 9999 BKN010 BECMG 2014/2016 CAVOK =

Estación SAN JUAN

19 - 17:00  TAF SANU 191700Z 1918/2018 36005KT 9999 FEW040 TX31/1920Z TN14/2010Z BECMG 2002/2004 23005KT CAVOK BECMG 2015/2017 05010KT 9999 FEW040 =

Estación SAN LUIS

19 - 17:00  TAF SAOU 191700Z 1918/2018 36010KT 9999 SCT040 TX29/1919Z TN20/2009Z BECMG 2002/2004 07005KT 9999 FEW040 BECMG 2015/2017 05015KT 9999 SCT040 =

Estación SAN RAFAEL

19 - 17:00  TAF SAMR 191700Z 1918/2018 36010KT 9999 FEW040 TX27/1920Z TN13/2011Z BECMG 1921/1923 05010KT 9999 SCT040 BECMG 2002/2004 29005KT 9999 BKN030 PROB30 TEMPO 2004/2008 25005KT 8000 RA OVC025 BECMG 2014/2016 05010KT 9999 FEW040 =

Estación SANTA ROSA

19 - 17:00  TAF SAZR 191700Z 1918/2018 36020G30KT 9999 FEW035 TX27/1918Z TN16/2009Z BECMG 1921/1923 02015G25KT CAVOK BECMG 2013/2015 03020G30KT 9999 SCT020 =

Estación SANTIAGO DEL ESTERO

19 - 17:00  TAF SANE 191700Z 1918/2018 05010KT 9999 SCT045 TX33/2018Z TN19/2010Z BECMG 1923/2002 07010KT CAVOK BECMG 2013/2015 05015KT =

Estación SAUCE VIEJO

19 - 17:00  TAF SAAV 191700Z 1918/2018 06010KT 9999 FEW025 TX29/2018Z TN16/2009Z BECMG 1921/1923 09008KT CAVOK BECMG 2012/2014 04015KT =

Estación TERMAS DE RIO HONDO

19 - 17:00  TAF SANR 191700Z 1918/2018 NIL =

Estación TRELEW

19 - 17:00  TAF SAVT 191700Z 1918/2018 34025G35KT CAVOK TX31/1920Z TN14/2011Z BECMG 1921/1923 34015KT BECMG 2003/2005 16015G25KT BECMG 2008/2010 BKN030 =

Estación TUCUMAN

19 - 17:00  TAF SANT 191700Z 1918/2018 11005KT 9999 SCT025 TX31/2018Z TN20/2010Z BECMG 1819/1821 02010KT BECMG 2002/2004 07005KT CAVOK TEMPO 5000 BR NSC =

Estación USHUAIA

19 - 17:00  TAF SAWH 191700Z 1918/2018 11015KT 6000 -DZ BKN015 OVC050 TX09/1916Z TN02/2010Z PROB30 TEMPO 1918/1922 14015G25KT 2000 +RA OVC010 BECMG 1922/1924 VRB03KT 9999 NSW BKN020 BKN080 =

Estación VIEDMA

19 - 17:00  TAF SAVV 191700Z 1918/2018 34020G30KT 8000 DU NSC TX30/1920Z TN15/2011Z BECMG 1922/1924 02015G25KT =